sensor_id;sensor_type;location;lat;lon;timestamp;temperature;humidity
10314;DHT22;5202;49.138;10.090;2024-03-23T00:55:22;7.70;99.90
10314;DHT22;5202;49.138;10.090;2024-03-23T00:57:48;7.60;99.90
10314;DHT22;5202;49.138;10.090;2024-03-23T01:00:16;7.50;99.90
10314;DHT22;5202;49.138;10.090;2024-03-23T01:02:42;7.50;99.90
10314;DHT22;5202;49.138;10.090;2024-03-23T01:05:19;7.50;99.90
10314;DHT22;5202;49.138;10.090;2024-03-23T01:07:46;7.40;99.90
10314;DHT22;5202;49.138;10.090;2024-03-23T01:10:14;7.30;99.90
10314;DHT22;5202;49.138;10.090;2024-03-23T01:12:42;7.30;99.90
10314;DHT22;5202;49.138;10.090;2024-03-23T01:15:09;7.30;99.90
10314;DHT22;5202;49.138;10.090;2024-03-23T01:17:36;7.20;99.90
10314;DHT22;5202;49.138;10.090;2024-03-23T01:20:04;7.20;99.90
10314;DHT22;5202;49.138;10.090;2024-03-23T01:22:32;7.20;99.90
10314;DHT22;5202;49.138;10.090;2024-03-23T01:24:59;7.20;99.90
10314;DHT22;5202;49.138;10.090;2024-03-23T01:27:26;7.20;99.90
10314;DHT22;5202;49.138;10.090;2024-03-23T01:29:54;7.20;99.90
10314;DHT22;5202;49.138;10.090;2024-03-23T01:32:21;7.20;99.90
10314;DHT22;5202;49.138;10.090;2024-03-23T01:34:48;7.30;99.90
10314;DHT22;5202;49.138;10.090;2024-03-23T01:37:15;7.30;99.90
10314;DHT22;5202;49.138;10.090;2024-03-23T01:39:42;7.40;99.90
10314;DHT22;5202;49.138;10.090;2024-03-23T01:42:08;7.40;99.90
10314;DHT22;5202;49.138;10.090;2024-03-23T01:44:36;7.50;99.90
10314;DHT22;5202;49.138;10.090;2024-03-23T01:47:06;7.50;99.90
10314;DHT22;5202;49.138;10.090;2024-03-23T01:49:33;7.60;99.90
10314;DHT22;5202;49.138;10.090;2024-03-23T01:52:00;7.60;99.90
10314;DHT22;5202;49.138;10.090;2024-03-23T01:54:29;7.60;99.90
10314;DHT22;5202;49.138;10.090;2024-03-23T01:56:56;7.70;99.90
10314;DHT22;5202;49.138;10.090;2024-03-23T01:59:23;7.70;99.90
10314;DHT22;5202;49.138;10.090;2024-03-23T02:01:50;7.70;99.90
10314;DHT22;5202;49.138;10.090;2024-03-23T02:04:21;7.80;99.90
10314;DHT22;5202;49.138;10.090;2024-03-23T02:06:47;7.80;99.90
10314;DHT22;5202;49.138;10.090;2024-03-23T02:09:15;7.90;99.90
10314;DHT22;5202;49.138;10.090;2024-03-23T02:11:42;7.90;99.90
10314;DHT22;5202;49.138;10.090;2024-03-23T02:14:09;8.00;99.90
10314;DHT22;5202;49.138;10.090;2024-03-23T02:16:35;8.00;99.90
10314;DHT22;5202;49.138;10.090;2024-03-23T02:19:02;8.00;99.90
10314;DHT22;5202;49.138;10.090;2024-03-23T02:21:30;8.00;99.90
10314;DHT22;5202;49.138;10.090;2024-03-23T02:24:00;8.00;99.90
10314;DHT22;5202;49.138;10.090;2024-03-23T02:26:26;8.00;99.90
10314;DHT22;5202;49.138;10.090;2024-03-23T02:28:54;8.10;99.90
10314;DHT22;5202;49.138;10.090;2024-03-23T02:31:20;8.20;99.90
10314;DHT22;5202;49.138;10.090;2024-03-23T02:33:47;8.20;99.90
10314;DHT22;5202;49.138;10.090;2024-03-23T02:36:14;8.20;99.90
10314;DHT22;5202;49.138;10.090;2024-03-23T02:38:42;8.30;99.90
10314;DHT22;5202;49.138;10.090;2024-03-23T02:41:10;8.30;99.90
10314;DHT22;5202;49.138;10.090;2024-03-23T02:43:38;8.20;99.90
10314;DHT22;5202;49.138;10.090;2024-03-23T02:46:04;8.30;99.90
10314;DHT22;5202;49.138;10.090;2024-03-23T02:48:32;8.30;99.90
10314;DHT22;5202;49.138;10.090;2024-03-23T02:51:04;8.40;99.90
10314;DHT22;5202;49.138;10.090;2024-03-23T02:53:31;8.40;99.90
10314;DHT22;5202;49.138;10.090;2024-03-23T02:55:57;8.40;99.90
10314;DHT22;5202;49.138;10.090;2024-03-23T02:58:26;8.40;99.90
10314;DHT22;5202;49.138;10.090;2024-03-23T03:00:53;8.50;99.90
10314;DHT22;5202;49.138;10.090;2024-03-23T03:03:20;8.50;99.90
10314;DHT22;5202;49.138;10.090;2024-03-23T03:05:55;8.60;99.90
10314;DHT22;5202;49.138;10.090;2024-03-23T03:08:31;8.60;99.90
10314;DHT22;5202;49.138;10.090;2024-03-23T03:10:58;8.60;99.90
10314;DHT22;5202;49.138;10.090;2024-03-23T03:13:55;8.70;99.90
10314;DHT22;5202;49.138;10.090;2024-03-23T03:16:23;8.70;99.90
10314;DHT22;5202;49.138;10.090;2024-03-23T03:18:49;8.70;99.90
10314;DHT22;5202;49.138;10.090;2024-03-23T03:21:18;8.70;99.90
10314;DHT22;5202;49.138;10.090;2024-03-23T03:23:45;8.70;99.90
10314;DHT22;5202;49.138;10.090;2024-03-23T03:26:13;8.70;99.90
10314;DHT22;5202;49.138;10.090;2024-03-23T03:28:40;8.70;99.90
10314;DHT22;5202;49.138;10.090;2024-03-23T03:31:08;8.60;99.90
10314;DHT22;5202;49.138;10.090;2024-03-23T03:33:35;8.60;99.90
10314;DHT22;5202;49.138;10.090;2024-03-23T03:36:03;8.60;99.90
10314;DHT22;5202;49.138;10.090;2024-03-23T03:38:30;8.50;99.90
10314;DHT22;5202;49.138;10.090;2024-03-23T03:40:57;8.50;99.90
10314;DHT22;5202;49.138;10.090;2024-03-23T03:43:24;8.50;99.90
10314;DHT22;5202;49.138;10.090;2024-03-23T03:45:52;8.50;99.90
10314;DHT22;5202;49.138;10.090;2024-03-23T03:48:20;8.50;99.90
10314;DHT22;5202;49.138;10.090;2024-03-23T03:50:47;8.50;99.90
10314;DHT22;5202;49.138;10.090;2024-03-23T03:53:14;8.60;99.90
10314;DHT22;5202;49.138;10.090;2024-03-23T03:55:42;8.60;99.90
10314;DHT22;5202;49.138;10.090;2024-03-23T03:58:08;8.70;99.90
10314;DHT22;5202;49.138;10.090;2024-03-23T04:00:35;8.70;99.90
10314;DHT22;5202;49.138;10.090;2024-03-23T04:03:01;8.80;99.90
10314;DHT22;5202;49.138;10.090;2024-03-23T04:05:30;8.70;99.90
10314;DHT22;5202;49.138;10.090;2024-03-23T04:07:57;8.70;99.90
10314;DHT22;5202;49.138;10.090;2024-03-23T04:10:24;8.60;99.90
10314;DHT22;5202;49.138;10.090;2024-03-23T04:12:51;8.70;99.90
10314;DHT22;5202;49.138;10.090;2024-03-23T04:15:18;8.70;99.90
10314;DHT22;5202;49.138;10.090;2024-03-23T04:17:44;8.50;99.90
10314;DHT22;5202;49.138;10.090;2024-03-23T04:20:14;8.40;99.90
10314;DHT22;5202;49.138;10.090;2024-03-23T04:22:44;8.20;99.90
10314;DHT22;5202;49.138;10.090;2024-03-23T04:25:12;8.10;99.90
10314;DHT22;5202;49.138;10.090;2024-03-23T04:27:39;8.00;99.90
10314;DHT22;5202;49.138;10.090;2024-03-23T04:30:08;8.00;99.90
10314;DHT22;5202;49.138;10.090;2024-03-23T04:32:37;7.90;99.90
10314;DHT22;5202;49.138;10.090;2024-03-23T04:35:05;7.80;99.90
10314;DHT22;5202;49.138;10.090;2024-03-23T04:37:32;7.70;99.90
10314;DHT22;5202;49.138;10.090;2024-03-23T04:40:02;7.60;99.90
10314;DHT22;5202;49.138;10.090;2024-03-23T04:42:30;7.50;99.90
10314;DHT22;5202;49.138;10.090;2024-03-23T04:44:58;7.60;99.90
10314;DHT22;5202;49.138;10.090;2024-03-23T04:47:25;7.50;99.90
10314;DHT22;5202;49.138;10.090;2024-03-23T04:49:53;7.40;99.90
10314;DHT22;5202;49.138;10.090;2024-03-23T04:52:20;7.30;99.90
10314;DHT22;5202;49.138;10.090;2024-03-23T04:54:48;7.30;99.90
10314;DHT22;5202;49.138;10.090;2024-03-23T04:57:35;7.20;99.90
10314;DHT22;5202;49.138;10.090;2024-03-23T05:00:03;7.20;99.90
10314;DHT22;5202;49.138;10.090;2024-03-23T05:02:41;7.20;99.90
10314;DHT22;5202;49.138;10.090;2024-03-23T05:05:09;7.30;99.90
10314;DHT22;5202;49.138;10.090;2024-03-23T05:07:35;7.30;99.90
10314;DHT22;5202;49.138;10.090;2024-03-23T05:10:03;7.40;99.90
10314;DHT22;5202;49.138;10.090;2024-03-23T05:12:30;7.50;99.90
10314;DHT22;5202;49.138;10.090;2024-03-23T05:14:59;7.60;99.90
10314;DHT22;5202;49.138;10.090;2024-03-23T05:17:25;7.60;99.90
10314;DHT22;5202;49.138;10.090;2024-03-23T05:19:53;7.70;99.90
10314;DHT22;5202;49.138;10.090;2024-03-23T05:22:19;7.80;99.90
10314;DHT22;5202;49.138;10.090;2024-03-23T05:24:46;7.90;99.90
10314;DHT22;5202;49.138;10.090;2024-03-23T05:27:15;8.10;99.90
10314;DHT22;5202;49.138;10.090;2024-03-23T05:29:42;8.30;99.90
10314;DHT22;5202;49.138;10.090;2024-03-23T05:32:10;8.40;99.90
10314;DHT22;5202;49.138;10.090;2024-03-23T05:34:37;8.50;99.90
10314;DHT22;5202;49.138;10.090;2024-03-23T05:37:04;8.50;99.90
10314;DHT22;5202;49.138;10.090;2024-03-23T05:39:31;8.60;99.90
10314;DHT22;5202;49.138;10.090;2024-03-23T05:41:58;8.60;99.90
10314;DHT22;5202;49.138;10.090;2024-03-23T05:44:25;8.60;99.90
10314;DHT22;5202;49.138;10.090;2024-03-23T05:46:51;8.60;99.90
10314;DHT22;5202;49.138;10.090;2024-03-23T05:49:20;8.60;99.90
10314;DHT22;5202;49.138;10.090;2024-03-23T05:51:47;8.60;99.90
10314;DHT22;5202;49.138;10.090;2024-03-23T05:54:14;8.50;99.90
10314;DHT22;5202;49.138;10.090;2024-03-23T05:56:41;8.60;99.90
10314;DHT22;5202;49.138;10.090;2024-03-23T05:59:08;8.60;99.90
10314;DHT22;5202;49.138;10.090;2024-03-23T06:01:35;8.60;99.90
10314;DHT22;5202;49.138;10.090;2024-03-23T06:04:02;8.60;99.90
10314;DHT22;5202;49.138;10.090;2024-03-23T06:06:30;8.60;99.90
10314;DHT22;5202;49.138;10.090;2024-03-23T06:08:57;8.60;99.90
10314;DHT22;5202;49.138;10.090;2024-03-23T06:11:24;8.60;99.90
10314;DHT22;5202;49.138;10.090;2024-03-23T06:13:52;8.70;99.90
10314;DHT22;5202;49.138;10.090;2024-03-23T06:16:19;8.70;99.90
10314;DHT22;5202;49.138;10.090;2024-03-23T06:18:49;8.70;99.90
10314;DHT22;5202;49.138;10.090;2024-03-23T06:21:17;8.70;99.90
10314;DHT22;5202;49.138;10.090;2024-03-23T06:23:45;8.80;99.90
10314;DHT22;5202;49.138;10.090;2024-03-23T06:26:17;8.80;99.90
10314;DHT22;5202;49.138;10.090;2024-03-23T06:28:43;8.80;99.90
10314;DHT22;5202;49.138;10.090;2024-03-23T06:31:11;8.80;99.90
10314;DHT22;5202;49.138;10.090;2024-03-23T06:33:38;8.70;99.90
10314;DHT22;5202;49.138;10.090;2024-03-23T06:36:07;8.70;99.90
10314;DHT22;5202;49.138;10.090;2024-03-23T06:38:35;8.70;99.90
10314;DHT22;5202;49.138;10.090;2024-03-23T06:41:05;8.60;99.90
10314;DHT22;5202;49.138;10.090;2024-03-23T06:43:32;8.60;99.90
10314;DHT22;5202;49.138;10.090;2024-03-23T06:45:59;8.60;99.90
10314;DHT22;5202;49.138;10.090;2024-03-23T06:48:25;8.60;99.90
10314;DHT22;5202;49.138;10.090;2024-03-23T06:50:55;8.50;99.90
10314;DHT22;5202;49.138;10.090;2024-03-23T06:53:22;8.40;99.90
10314;DHT22;5202;49.138;10.090;2024-03-23T06:55:50;8.40;99.90
10314;DHT22;5202;49.138;10.090;2024-03-23T06:58:20;8.40;99.90
10314;DHT22;5202;49.138;10.090;2024-03-23T07:00:47;8.30;99.90
10314;DHT22;5202;49.138;10.090;2024-03-23T07:03:14;8.30;99.90
10314;DHT22;5202;49.138;10.090;2024-03-23T07:05:43;8.30;99.90
10314;DHT22;5202;49.138;10.090;2024-03-23T07:08:10;8.30;99.90
10314;DHT22;5202;49.138;10.090;2024-03-23T07:10:39;8.30;99.90
10314;DHT22;5202;49.138;10.090;2024-03-23T07:13:05;8.30;99.90
10314;DHT22;5202;49.138;10.090;2024-03-23T07:15:34;8.30;99.90
10314;DHT22;5202;49.138;10.090;2024-03-23T07:18:00;8.30;99.90
10314;DHT22;5202;49.138;10.090;2024-03-23T07:20:29;8.30;99.90
10314;DHT22;5202;49.138;10.090;2024-03-23T07:22:57;8.40;99.90
10314;DHT22;5202;49.138;10.090;2024-03-23T07:25:24;8.40;99.90
10314;DHT22;5202;49.138;10.090;2024-03-23T07:27:53;8.40;99.90
10314;DHT22;5202;49.138;10.090;2024-03-23T07:30:20;8.40;99.90
10314;DHT22;5202;49.138;10.090;2024-03-23T07:32:48;8.40;99.90
10314;DHT22;5202;49.138;10.090;2024-03-23T07:35:15;8.40;99.90
10314;DHT22;5202;49.138;10.090;2024-03-23T07:37:42;8.40;99.90
10314;DHT22;5202;49.138;10.090;2024-03-23T07:40:11;8.40;99.90
10314;DHT22;5202;49.138;10.090;2024-03-23T07:42:39;8.30;99.90
10314;DHT22;5202;49.138;10.090;2024-03-23T07:45:06;8.40;99.90
10314;DHT22;5202;49.138;10.090;2024-03-23T07:47:35;8.20;99.90
10314;DHT22;5202;49.138;10.090;2024-03-23T07:50:04;8.20;99.90
10314;DHT22;5202;49.138;10.090;2024-03-23T07:52:32;8.10;99.90
10314;DHT22;5202;49.138;10.090;2024-03-23T07:54:58;8.00;99.90
10314;DHT22;5202;49.138;10.090;2024-03-23T07:57:25;7.90;99.90
10314;DHT22;5202;49.138;10.090;2024-03-23T07:59:52;7.90;99.90
10314;DHT22;5202;49.138;10.090;2024-03-23T08:02:19;7.80;99.90
10314;DHT22;5202;49.138;10.090;2024-03-23T08:04:46;7.70;99.90
10314;DHT22;5202;49.138;10.090;2024-03-23T08:07:14;7.60;99.90
10314;DHT22;5202;49.138;10.090;2024-03-23T08:09:41;7.50;99.90
10314;DHT22;5202;49.138;10.090;2024-03-23T08:12:08;7.40;99.90
10314;DHT22;5202;49.138;10.090;2024-03-23T08:14:35;7.20;99.90
10314;DHT22;5202;49.138;10.090;2024-03-23T08:17:02;7.10;99.90
10314;DHT22;5202;49.138;10.090;2024-03-23T08:19:28;7.00;99.90
10314;DHT22;5202;49.138;10.090;2024-03-23T08:21:56;6.80;99.90
10314;DHT22;5202;49.138;10.090;2024-03-23T08:24:24;6.80;99.90
10314;DHT22;5202;49.138;10.090;2024-03-23T08:26:54;6.70;99.90
10314;DHT22;5202;49.138;10.090;2024-03-23T08:29:21;6.60;99.90
10314;DHT22;5202;49.138;10.090;2024-03-23T08:31:48;6.60;99.90
10314;DHT22;5202;49.138;10.090;2024-03-23T08:34:14;6.50;99.90
10314;DHT22;5202;49.138;10.090;2024-03-23T08:36:42;6.50;99.90
10314;DHT22;5202;49.138;10.090;2024-03-23T08:39:09;6.50;99.90
10314;DHT22;5202;49.138;10.090;2024-03-23T08:41:38;6.60;99.90
10314;DHT22;5202;49.138;10.090;2024-03-23T08:44:04;6.60;99.90
10314;DHT22;5202;49.138;10.090;2024-03-23T08:46:32;6.60;99.90
10314;DHT22;5202;49.138;10.090;2024-03-23T08:48:58;6.80;99.90
10314;DHT22;5202;49.138;10.090;2024-03-23T08:51:26;6.90;99.90
10314;DHT22;5202;49.138;10.090;2024-03-23T08:53:52;6.90;99.90
10314;DHT22;5202;49.138;10.090;2024-03-23T08:56:20;7.00;99.90
10314;DHT22;5202;49.138;10.090;2024-03-23T08:58:48;7.10;99.90
10314;DHT22;5202;49.138;10.090;2024-03-23T09:01:15;7.10;99.90
10314;DHT22;5202;49.138;10.090;2024-03-23T09:03:42;7.20;99.90
10314;DHT22;5202;49.138;10.090;2024-03-23T09:06:20;7.50;99.90
10314;DHT22;5202;49.138;10.090;2024-03-23T09:08:53;7.80;99.90
10314;DHT22;5202;49.138;10.090;2024-03-23T09:11:21;7.70;99.90
10314;DHT22;5202;49.138;10.090;2024-03-23T09:13:48;7.70;99.90
10314;DHT22;5202;49.138;10.090;2024-03-23T09:16:16;7.50;99.90
10314;DHT22;5202;49.138;10.090;2024-03-23T09:18:42;7.40;99.90
10314;DHT22;5202;49.138;10.090;2024-03-23T09:21:11;7.30;99.90
10314;DHT22;5202;49.138;10.090;2024-03-23T09:23:39;7.30;99.90
10314;DHT22;5202;49.138;10.090;2024-03-23T09:26:06;7.20;99.90
10314;DHT22;5202;49.138;10.090;2024-03-23T09:28:33;7.00;99.90
10314;DHT22;5202;49.138;10.090;2024-03-23T09:31:08;6.90;99.90
10314;DHT22;5202;49.138;10.090;2024-03-23T09:33:35;6.90;99.90
10314;DHT22;5202;49.138;10.090;2024-03-23T09:36:03;6.90;99.90
10314;DHT22;5202;49.138;10.090;2024-03-23T09:38:30;6.90;99.90
10314;DHT22;5202;49.138;10.090;2024-03-23T09:40:58;6.90;99.90
10314;DHT22;5202;49.138;10.090;2024-03-23T09:43:24;6.90;99.90
10314;DHT22;5202;49.138;10.090;2024-03-23T09:45:52;6.80;99.90
10314;DHT22;5202;49.138;10.090;2024-03-23T09:48:20;6.80;99.90
10314;DHT22;5202;49.138;10.090;2024-03-23T09:50:48;6.80;99.90
10314;DHT22;5202;49.138;10.090;2024-03-23T09:53:14;6.70;99.90
10314;DHT22;5202;49.138;10.090;2024-03-23T09:55:43;6.70;99.90
10314;DHT22;5202;49.138;10.090;2024-03-23T09:58:12;6.70;99.90
10314;DHT22;5202;49.138;10.090;2024-03-23T10:00:41;6.70;99.90
10314;DHT22;5202;49.138;10.090;2024-03-23T10:03:07;6.70;99.90
10314;DHT22;5202;49.138;10.090;2024-03-23T10:05:38;6.70;99.90
10314;DHT22;5202;49.138;10.090;2024-03-23T10:08:18;6.90;99.90
10314;DHT22;5202;49.138;10.090;2024-03-23T10:10:46;6.90;99.90
10314;DHT22;5202;49.138;10.090;2024-03-23T10:13:24;7.00;99.90
10314;DHT22;5202;49.138;10.090;2024-03-23T10:15:56;6.90;99.90
10314;DHT22;5202;49.138;10.090;2024-03-23T10:18:24;6.70;99.90
10314;DHT22;5202;49.138;10.090;2024-03-23T10:21:06;6.90;99.90
10314;DHT22;5202;49.138;10.090;2024-03-23T10:23:34;6.80;99.90
10314;DHT22;5202;49.138;10.090;2024-03-23T10:26:17;6.90;99.60
10314;DHT22;5202;49.138;10.090;2024-03-23T10:28:55;7.10;99.00
10314;DHT22;5202;49.138;10.090;2024-03-23T10:31:27;7.40;99.10
10314;DHT22;5202;49.138;10.090;2024-03-23T10:33:53;7.50;98.00
10314;DHT22;5202;49.138;10.090;2024-03-23T10:36:24;7.80;97.30
10314;DHT22;5202;49.138;10.090;2024-03-23T10:38:53;7.80;96.90
10314;DHT22;5202;49.138;10.090;2024-03-23T10:41:21;8.00;97.00
10314;DHT22;5202;49.138;10.090;2024-03-23T10:43:49;8.20;95.40
10314;DHT22;5202;49.138;10.090;2024-03-23T10:46:16;8.30;94.70
10314;DHT22;5202;49.138;10.090;2024-03-23T10:48:44;8.30;93.20
10314;DHT22;5202;49.138;10.090;2024-03-23T10:51:12;8.20;93.10
10314;DHT22;5202;49.138;10.090;2024-03-23T10:53:41;8.40;93.50
10314;DHT22;5202;49.138;10.090;2024-03-23T10:56:10;8.40;92.70
10314;DHT22;5202;49.138;10.090;2024-03-23T10:58:39;8.40;92.10
10314;DHT22;5202;49.138;10.090;2024-03-23T11:01:10;8.50;91.10
10314;DHT22;5202;49.138;10.090;2024-03-23T11:03:45;8.60;90.90
10314;DHT22;5202;49.138;10.090;2024-03-23T11:06:35;8.50;91.00
10314;DHT22;5202;49.138;10.090;2024-03-23T11:09:04;8.30;90.20
10314;DHT22;5202;49.138;10.090;2024-03-23T11:12:26;8.10;89.10
10314;DHT22;5202;49.138;10.090;2024-03-23T11:14:55;8.00;90.00
10314;DHT22;5202;49.138;10.090;2024-03-23T11:17:25;8.00;90.50
10314;DHT22;5202;49.138;10.090;2024-03-23T11:19:57;7.90;90.40
10314;DHT22;5202;49.138;10.090;2024-03-23T11:22:43;7.90;90.40
10314;DHT22;5202;49.138;10.090;2024-03-23T11:25:18;8.00;90.30
10314;DHT22;5202;49.138;10.090;2024-03-23T11:27:48;8.30;90.60
10314;DHT22;5202;49.138;10.090;2024-03-23T11:30:17;8.40;90.80
10314;DHT22;5202;49.138;10.090;2024-03-23T11:32:46;8.40;88.00
10314;DHT22;5202;49.138;10.090;2024-03-23T11:35:29;8.20;88.20
10314;DHT22;5202;49.138;10.090;2024-03-23T11:38:06;8.40;90.30
10314;DHT22;5202;49.138;10.090;2024-03-23T11:40:35;8.50;89.50
10314;DHT22;5202;49.138;10.090;2024-03-23T11:43:04;8.70;90.20
10314;DHT22;5202;49.138;10.090;2024-03-23T11:45:36;8.70;89.60
10314;DHT22;5202;49.138;10.090;2024-03-23T11:48:08;8.40;90.00
10314;DHT22;5202;49.138;10.090;2024-03-23T11:50:37;8.20;90.10
10314;DHT22;5202;49.138;10.090;2024-03-23T11:53:15;8.10;90.50
10314;DHT22;5202;49.138;10.090;2024-03-23T11:55:46;8.10;91.10
10314;DHT22;5202;49.138;10.090;2024-03-23T11:58:14;8.20;90.60
10314;DHT22;5202;49.138;10.090;2024-03-23T12:00:48;8.20;90.20
10314;DHT22;5202;49.138;10.090;2024-03-23T12:03:17;8.20;90.50
10314;DHT22;5202;49.138;10.090;2024-03-23T12:05:48;8.10;90.40
10314;DHT22;5202;49.138;10.090;2024-03-23T12:08:21;7.90;90.40
10314;DHT22;5202;49.138;10.090;2024-03-23T12:10:51;7.80;91.10
10314;DHT22;5202;49.138;10.090;2024-03-23T12:13:20;7.70;93.00
10314;DHT22;5202;49.138;10.090;2024-03-23T12:15:47;7.60;94.20
10314;DHT22;5202;49.138;10.090;2024-03-23T12:18:16;7.50;94.70
10314;DHT22;5202;49.138;10.090;2024-03-23T12:20:43;7.70;94.00
10314;DHT22;5202;49.138;10.090;2024-03-23T12:23:12;8.10;93.70
10314;DHT22;5202;49.138;10.090;2024-03-23T12:25:41;8.30;93.20
10314;DHT22;5202;49.138;10.090;2024-03-23T12:28:10;8.20;92.40
10314;DHT22;5202;49.138;10.090;2024-03-23T12:30:39;8.30;92.50
10314;DHT22;5202;49.138;10.090;2024-03-23T12:33:06;8.40;92.30
10314;DHT22;5202;49.138;10.090;2024-03-23T12:35:33;8.30;90.50
10314;DHT22;5202;49.138;10.090;2024-03-23T12:38:01;8.20;90.70
10314;DHT22;5202;49.138;10.090;2024-03-23T12:40:27;8.10;90.00
10314;DHT22;5202;49.138;10.090;2024-03-23T12:42:55;8.20;91.30
10314;DHT22;5202;49.138;10.090;2024-03-23T12:45:23;8.30;91.40
10314;DHT22;5202;49.138;10.090;2024-03-23T12:47:51;8.30;91.40
10314;DHT22;5202;49.138;10.090;2024-03-23T12:50:19;8.30;89.80
10314;DHT22;5202;49.138;10.090;2024-03-23T12:52:47;8.20;87.40
10314;DHT22;5202;49.138;10.090;2024-03-23T12:55:14;8.30;85.20
10314;DHT22;5202;49.138;10.090;2024-03-23T12:57:42;8.50;83.00
10314;DHT22;5202;49.138;10.090;2024-03-23T13:00:09;8.90;83.00
10314;DHT22;5202;49.138;10.090;2024-03-23T13:02:39;9.10;81.60
10314;DHT22;5202;49.138;10.090;2024-03-23T13:05:06;9.20;82.10
10314;DHT22;5202;49.138;10.090;2024-03-23T13:07:40;9.00;80.30
10314;DHT22;5202;49.138;10.090;2024-03-23T13:10:07;8.90;81.90
10314;DHT22;5202;49.138;10.090;2024-03-23T13:12:43;8.90;86.30
10314;DHT22;5202;49.138;10.090;2024-03-23T13:15:09;8.90;88.80
10314;DHT22;5202;49.138;10.090;2024-03-23T13:17:36;9.00;88.70
10314;DHT22;5202;49.138;10.090;2024-03-23T13:20:05;9.00;89.70
10314;DHT22;5202;49.138;10.090;2024-03-23T13:22:39;9.10;90.50
10314;DHT22;5202;49.138;10.090;2024-03-23T13:25:06;9.30;89.20
10314;DHT22;5202;49.138;10.090;2024-03-23T13:27:34;9.30;89.60
10314;DHT22;5202;49.138;10.090;2024-03-23T13:30:01;9.30;90.50
10314;DHT22;5202;49.138;10.090;2024-03-23T13:32:30;9.30;90.20
10314;DHT22;5202;49.138;10.090;2024-03-23T13:34:56;9.10;89.30
10314;DHT22;5202;49.138;10.090;2024-03-23T13:37:24;9.40;90.40
10314;DHT22;5202;49.138;10.090;2024-03-23T13:39:51;9.40;90.20
10314;DHT22;5202;49.138;10.090;2024-03-23T13:42:18;9.60;90.30
10314;DHT22;5202;49.138;10.090;2024-03-23T13:44:45;9.60;89.50
10314;DHT22;5202;49.138;10.090;2024-03-23T13:47:13;9.60;88.20
10314;DHT22;5202;49.138;10.090;2024-03-23T13:49:39;9.10;89.90
10314;DHT22;5202;49.138;10.090;2024-03-23T13:52:06;9.10;90.50
10314;DHT22;5202;49.138;10.090;2024-03-23T13:54:35;9.00;90.60
10314;DHT22;5202;49.138;10.090;2024-03-23T13:57:03;8.90;90.40
10314;DHT22;5202;49.138;10.090;2024-03-23T13:59:30;9.00;90.60
10314;DHT22;5202;49.138;10.090;2024-03-23T14:01:58;9.00;90.50
10314;DHT22;5202;49.138;10.090;2024-03-23T14:04:24;8.90;90.40
10314;DHT22;5202;49.138;10.090;2024-03-23T14:06:52;8.80;90.20
10314;DHT22;5202;49.138;10.090;2024-03-23T14:09:18;8.80;89.60
10314;DHT22;5202;49.138;10.090;2024-03-23T14:11:48;9.00;90.20
10314;DHT22;5202;49.138;10.090;2024-03-23T14:14:14;9.20;90.50
10314;DHT22;5202;49.138;10.090;2024-03-23T14:16:42;9.30;90.40
10314;DHT22;5202;49.138;10.090;2024-03-23T14:19:09;9.20;89.30
10314;DHT22;5202;49.138;10.090;2024-03-23T14:21:36;8.90;89.00
10314;DHT22;5202;49.138;10.090;2024-03-23T14:24:05;8.70;90.00
10314;DHT22;5202;49.138;10.090;2024-03-23T14:26:31;8.60;90.10
10314;DHT22;5202;49.138;10.090;2024-03-23T14:29:00;8.00;91.00
10314;DHT22;5202;49.138;10.090;2024-03-23T14:31:27;7.40;93.30
10314;DHT22;5202;49.138;10.090;2024-03-23T14:33:54;6.90;96.10
10314;DHT22;5202;49.138;10.090;2024-03-23T14:36:21;6.60;99.50
10314;DHT22;5202;49.138;10.090;2024-03-23T14:38:48;6.30;99.90
10314;DHT22;5202;49.138;10.090;2024-03-23T14:41:15;6.10;99.90
10314;DHT22;5202;49.138;10.090;2024-03-23T14:43:43;6.00;99.90
10314;DHT22;5202;49.138;10.090;2024-03-23T14:46:12;5.80;99.90
10314;DHT22;5202;49.138;10.090;2024-03-23T14:48:41;5.50;99.90
10314;DHT22;5202;49.138;10.090;2024-03-23T14:51:09;5.40;99.90
10314;DHT22;5202;49.138;10.090;2024-03-23T14:53:37;5.40;99.90
10314;DHT22;5202;49.138;10.090;2024-03-23T14:56:06;5.30;99.90
10314;DHT22;5202;49.138;10.090;2024-03-23T14:58:36;5.20;99.90
10314;DHT22;5202;49.138;10.090;2024-03-23T15:01:02;5.10;99.90
10314;DHT22;5202;49.138;10.090;2024-03-23T15:03:31;5.10;99.90
10314;DHT22;5202;49.138;10.090;2024-03-23T15:05:59;5.30;99.90
10314;DHT22;5202;49.138;10.090;2024-03-23T15:08:27;5.80;99.90
10314;DHT22;5202;49.138;10.090;2024-03-23T15:10:54;6.20;99.90
10314;DHT22;5202;49.138;10.090;2024-03-23T15:13:21;6.30;99.90
10314;DHT22;5202;49.138;10.090;2024-03-23T15:15:49;6.50;99.90
10314;DHT22;5202;49.138;10.090;2024-03-23T15:18:18;6.80;99.90
10314;DHT22;5202;49.138;10.090;2024-03-23T15:20:56;7.10;99.90
10314;DHT22;5202;49.138;10.090;2024-03-23T15:23:27;7.10;97.70
10314;DHT22;5202;49.138;10.090;2024-03-23T15:25:55;7.20;97.40
10314;DHT22;5202;49.138;10.090;2024-03-23T15:28:23;7.40;97.10
10314;DHT22;5202;49.138;10.090;2024-03-23T15:30:52;7.60;96.60
10314;DHT22;5202;49.138;10.090;2024-03-23T15:33:19;7.40;96.40
10314;DHT22;5202;49.138;10.090;2024-03-23T15:35:46;7.60;97.00
10314;DHT22;5202;49.138;10.090;2024-03-23T15:38:14;7.70;96.20
10314;DHT22;5202;49.138;10.090;2024-03-23T15:40:41;7.80;96.30
10314;DHT22;5202;49.138;10.090;2024-03-23T15:43:08;7.80;95.80
10314;DHT22;5202;49.138;10.090;2024-03-23T15:45:35;7.60;95.70
10314;DHT22;5202;49.138;10.090;2024-03-23T15:48:02;7.40;95.80
10314;DHT22;5202;49.138;10.090;2024-03-23T15:50:30;7.40;96.50
10314;DHT22;5202;49.138;10.090;2024-03-23T15:52:56;7.50;97.10
10314;DHT22;5202;49.138;10.090;2024-03-23T15:55:25;7.50;97.10
10314;DHT22;5202;49.138;10.090;2024-03-23T15:57:51;7.40;97.00
10314;DHT22;5202;49.138;10.090;2024-03-23T16:00:19;7.30;97.40
10314;DHT22;5202;49.138;10.090;2024-03-23T16:02:45;7.10;97.30
10314;DHT22;5202;49.138;10.090;2024-03-23T16:05:13;7.10;97.10
10314;DHT22;5202;49.138;10.090;2024-03-23T16:07:40;7.00;97.30
10314;DHT22;5202;49.138;10.090;2024-03-23T16:10:08;6.80;97.90
10314;DHT22;5202;49.138;10.090;2024-03-23T16:12:37;7.00;98.30
10314;DHT22;5202;49.138;10.090;2024-03-23T16:15:05;7.00;97.70
10314;DHT22;5202;49.138;10.090;2024-03-23T16:17:32;7.20;97.80
10314;DHT22;5202;49.138;10.090;2024-03-23T16:20:02;7.40;98.00
10314;DHT22;5202;49.138;10.090;2024-03-23T16:22:31;7.50;98.30
10314;DHT22;5202;49.138;10.090;2024-03-23T16:24:58;7.70;98.20
10314;DHT22;5202;49.138;10.090;2024-03-23T16:27:24;7.90;98.00
10314;DHT22;5202;49.138;10.090;2024-03-23T16:29:53;8.00;97.50
10314;DHT22;5202;49.138;10.090;2024-03-23T16:32:20;8.00;97.20
10314;DHT22;5202;49.138;10.090;2024-03-23T16:34:49;7.90;97.00
10314;DHT22;5202;49.138;10.090;2024-03-23T16:37:15;7.90;95.80
10314;DHT22;5202;49.138;10.090;2024-03-23T16:39:43;7.90;94.70
10314;DHT22;5202;49.138;10.090;2024-03-23T16:42:10;7.90;92.60
10314;DHT22;5202;49.138;10.090;2024-03-23T16:44:37;7.90;91.20
10314;DHT22;5202;49.138;10.090;2024-03-23T16:47:06;8.00;90.50